Terminal Aerodrome Forecast
Issued by NWS Austin/San Antonio, TX

Current Version | Previous Version | Text Only | Print | Product List | Glossary Off
Versions: 1 2 3 4 5 6 7 8 9 10 11 12 13 14 15 16 17 18 19 20

000
FTUS44 KEWX 312300
TAFAUS
TAF
KAUS 312325Z 0100/0206 01008KT P6SM SKC
     FM011600 06006KT P6SM FEW250
     FM012200 12008KT P6SM SCT200=

USA.gov is the U.S. government's official web portal to all federal, state and local government web resources and services.